Time;durP1;ratioP1;P1;durP2;ratioP2;P2;SDS_P1;SDS_P2;PMS_P1;PMS_P2;Temp;Humidity;BMP_temperature;BMP_pressure;BME280_temperature;BME280_humidity;BME280_pressure;Samples;Min_cycle;Max_cycle;Signal;HPM_P1;HPM_P2
2023/03/11 00:01:57;;;;;;;;;;;;;;;0.18;100.00;100580.94;10457201;28;19925;-65
2023/03/11 00:06:59;;;;;;;;;;;;;;;0.22;100.00;100581.72;10457464;28;19924;-64
2023/03/11 00:12:02;;;;;;;;;;;;;;;0.13;100.00;100580.16;10455537;28;19924;-64
2023/03/11 00:17:04;;;;;;;;;;;;;;;0.11;100.00;100599.94;10454666;28;19929;-64
2023/03/11 00:22:06;;;;;;;;;;;;;;;0.07;100.00;100598.28;10456795;28;19925;-64
2023/03/11 00:27:08;;;;;;;;;;;;;;;0.16;100.00;100605.88;10437961;28;19990;-64
2023/03/11 00:32:11;;;;;;;;;;;;;;;0.10;100.00;100601.69;10456756;28;19925;-64
2023/03/11 00:37:13;;;;;;;;;;;;;;;0.12;100.00;100617.09;10455118;28;19924;-64
2023/03/11 00:42:15;;;;;;;;;;;;;;;0.14;100.00;100615.34;10460084;28;20264;-64
2023/03/11 00:47:17;;;;;;;;;;;;;;;0.04;100.00;100629.25;10462950;28;20367;-64
2023/03/11 00:52:19;;;;;;;;;;;;;;;0.02;100.00;100620.69;10463452;28;20039;-65
2023/03/11 00:57:22;;;;;;;;;;;;;;;-0.03;100.00;100634.50;10463887;28;19925;-64
2023/03/11 01:02:24;;;;;;;;;;;;;;;-0.02;100.00;100628.47;10464384;28;19944;-64
2023/03/11 01:07:26;;;;;;;;;;;;;;;-0.08;100.00;100638.88;10463637;28;19925;-64
2023/03/11 01:12:28;;;;;;;;;;;;;;;-0.09;100.00;100634.59;10446288;28;19932;-64
2023/03/11 01:17:30;;;;;;;;;;;;;;;-0.17;100.00;100654.44;10462496;28;20303;-65
2023/03/11 01:22:33;;;;;;;;;;;;;;;-0.07;100.00;100645.72;10462069;28;20375;-64
2023/03/11 01:27:35;;;;;;;;;;;;;;;-0.04;100.00;100655.94;10463605;28;19979;-64
2023/03/11 01:32:37;;;;;;;;;;;;;;;-0.11;100.00;100666.38;10463263;28;20020;-64
2023/03/11 01:37:39;;;;;;;;;;;;;;;0.01;100.00;100673.06;10443949;28;20376;-65
2023/03/11 01:42:42;;;;;;;;;;;;;;;-0.09;100.00;100668.03;10461158;28;19925;-64
2023/03/11 01:47:44;;;;;;;;;;;;;;;-0.01;100.00;100670.50;10461237;28;19983;-64
2023/03/11 01:52:46;;;;;;;;;;;;;;;-0.24;100.00;100678.56;10461684;28;19924;-65
2023/03/11 01:57:48;;;;;;;;;;;;;;;-0.21;100.00;100681.09;10459827;28;19924;-64
2023/03/11 02:02:51;;;;;;;;;;;;;;;-0.28;100.00;100680.34;10461519;28;20323;-65
2023/03/11 02:07:54;;;;;;;;;;;;;;;-0.25;100.00;100680.31;10442468;28;19936;-65
2023/03/11 02:12:56;;;;;;;;;;;;;;;-0.16;100.00;100684.47;10461189;28;19925;-65
2023/03/11 02:17:58;;;;;;;;;;;;;;;-0.06;100.00;100680.03;10443795;28;19925;-65
2023/03/11 02:23:00;;;;;;;;;;;;;;;-0.07;100.00;100689.47;10442603;28;19970;-64
2023/03/11 02:28:03;;;;;;;;;;;;;;;-0.21;100.00;100688.81;10442709;28;20371;-65
2023/03/11 02:33:05;;;;;;;;;;;;;;;-0.04;100.00;100694.56;10440593;28;19940;-65
2023/03/11 02:38:08;;;;;;;;;;;;;;;-0.02;100.00;100697.09;10442886;28;19932;-65
2023/03/11 02:43:11;;;;;;;;;;;;;;;0.02;100.00;100697.91;10459723;28;19924;-65
2023/03/11 02:48:13;;;;;;;;;;;;;;;0.17;100.00;100701.09;10441191;28;19925;-65
2023/03/11 02:53:15;;;;;;;;;;;;;;;0.23;100.00;100707.03;10441610;28;19928;-65
2023/03/11 02:58:17;;;;;;;;;;;;;;;0.15;100.00;100715.75;10459253;28;19925;-65
2023/03/11 03:03:19;;;;;;;;;;;;;;;0.32;100.00;100707.75;10458049;28;19928;-65
2023/03/11 03:08:22;;;;;;;;;;;;;;;0.14;100.00;100692.59;10459343;28;19929;-65
2023/03/11 03:13:24;;;;;;;;;;;;;;;0.25;100.00;100700.13;10456856;28;20433;-65
2023/03/11 03:18:27;;;;;;;;;;;;;;;0.09;100.00;100704.69;10458467;28;19925;-65
2023/03/11 03:23:33;;;;;;;;;;;;;;;0.23;100.00;100707.03;10458754;28;19925;-65
2023/03/11 03:28:36;;;;;;;;;;;;;;;0.23;100.00;100710.44;10457307;28;19925;-64
2023/03/11 03:33:38;;;;;;;;;;;;;;;0.34;100.00;100721.44;10457652;28;19925;-65
2023/03/11 03:38:40;;;;;;;;;;;;;;;0.42;100.00;100736.78;10440739;28;19924;-65
2023/03/11 03:43:42;;;;;;;;;;;;;;;0.24;100.00;100744.78;10456154;28;19924;-65
2023/03/11 03:48:44;;;;;;;;;;;;;;;0.33;100.00;100753.19;10455966;28;19971;-64
2023/03/11 03:53:47;;;;;;;;;;;;;;;0.16;100.00;100753.47;10454441;28;19925;-64
2023/03/11 03:58:49;;;;;;;;;;;;;;;0.08;100.00;100762.19;10457147;28;20438;-64
2023/03/11 04:03:51;;;;;;;;;;;;;;;0.02;100.00;100765.72;10457758;28;19925;-64
2023/03/11 04:08:53;;;;;;;;;;;;;;;-0.01;100.00;100770.91;10454934;28;19972;-65
2023/03/11 04:13:55;;;;;;;;;;;;;;;0.12;100.00;100767.28;10454891;28;19925;-65
2023/03/11 04:18:58;;;;;;;;;;;;;;;0.04;100.00;100776.00;10457431;28;19932;-65
2023/03/11 04:24:00;;;;;;;;;;;;;;;0.01;100.00;100774.28;10455981;28;19925;-65
2023/03/11 04:29:02;;;;;;;;;;;;;;;-0.12;100.00;100786.47;10438820;28;19932;-65
2023/03/11 04:34:04;;;;;;;;;;;;;;;-0.07;100.00;100789.88;10455555;28;19932;-65
2023/03/11 04:39:06;;;;;;;;;;;;;;;0.05;100.00;100798.25;10456436;28;19925;-65
2023/03/11 04:44:08;;;;;;;;;;;;;;;0.13;100.00;100788.72;10456503;28;19929;-65
2023/03/11 04:49:11;;;;;;;;;;;;;;;0.12;100.00;100798.16;10454584;28;19932;-62
2023/03/11 04:54:13;;;;;;;;;;;;;;;-0.10;100.00;100801.91;10453354;28;19924;-62
2023/03/11 04:59:15;;;;;;;;;;;;;;;-0.14;100.00;100806.22;10451125;23;20395;-63
2023/03/11 05:04:17;;;;;;;;;;;;;;;-0.21;100.00;100812.34;10414596;28;20383;-63
2023/03/11 05:09:19;;;;;;;;;;;;;;;-0.17;100.00;100803.69;10413589;28;20296;-62
2023/03/11 05:14:21;;;;;;;;;;;;;;;-0.33;100.00;100808.19;10411991;28;19925;-63
2023/03/11 05:19:30;;;;;;;;;;;;;;;-0.16;100.00;100815.69;10414225;28;19932;-63
2023/03/11 05:24:32;;;;;;;;;;;;;;;-0.04;99.72;100818.09;10439187;28;19929;-63
2023/03/11 05:29:35;;;;;;;;;;;;;;;0.04;100.00;100825.75;10459684;28;19925;-63
2023/03/11 05:34:37;;;;;;;;;;;;;;;-0.26;100.00;100827.00;10443713;28;19924;-63
2023/03/11 05:39:39;;;;;;;;;;;;;;;-0.31;100.00;100826.19;10462405;28;20295;-63
2023/03/11 05:44:41;;;;;;;;;;;;;;;-0.38;100.00;100827.97;10462809;28;19925;-62
2023/03/11 05:49:45;;;;;;;;;;;;;;;-0.33;100.00;100840.81;10461393;28;19925;-63
2023/03/11 05:54:48;;;;;;;;;;;;;;;-0.58;100.00;100851.34;10460658;28;19925;-63
2023/03/11 05:59:50;;;;;;;;;;;;;;;-0.55;100.00;100851.31;10444134;28;19925;-63
2023/03/11 06:04:52;;;;;;;;;;;;;;;-0.57;100.00;100856.47;10461489;28;19932;-63
2023/03/11 06:09:54;;;;;;;;;;;;;;;-0.87;100.00;100870.50;10460564;28;19925;-63
2023/03/11 06:14:57;;;;;;;;;;;;;;;-0.59;100.00;100877.94;10459220;28;20429;-63
2023/03/11 06:19:59;;;;;;;;;;;;;;;-0.61;100.00;100877.94;10461416;28;19928;-63
2023/03/11 06:25:01;;;;;;;;;;;;;;;-0.54;100.00;100890.75;10458275;28;19937;-62
2023/03/11 06:30:03;;;;;;;;;;;;;;;-0.63;100.00;100889.97;10460065;28;19925;-62
2023/03/11 06:35:06;;;;;;;;;;;;;;;-0.28;100.00;100893.91;10458555;28;19928;-63
2023/03/11 06:40:09;;;;;;;;;;;;;;;-0.42;100.00;100908.63;10459538;28;19925;-63
2023/03/11 06:45:12;;;;;;;;;;;;;;;-0.52;100.00;100909.59;10442859;28;19932;-63
2023/03/11 06:50:14;;;;;;;;;;;;;;;-0.40;99.83;100912.91;10458603;28;19925;-63
2023/03/11 06:55:16;;;;;;;;;;;;;;;-0.08;100.00;100918.56;10458042;28;19925;-63
2023/03/11 07:00:18;;;;;;;;;;;;;;;0.02;100.00;100929.59;10459395;28;19979;-63
2023/03/11 07:05:21;;;;;;;;;;;;;;;-0.02;100.00;100947.66;10459694;28;19931;-63
2023/03/11 07:10:23;;;;;;;;;;;;;;;0.42;96.75;100941.97;10457701;28;19979;-63
2023/03/11 07:15:25;;;;;;;;;;;;;;;0.58;96.41;100952.94;10456476;28;19929;-63
2023/03/11 07:20:27;;;;;;;;;;;;;;;1.14;95.01;100958.13;10457871;28;19971;-63
2023/03/11 07:25:29;;;;;;;;;;;;;;;0.96;93.44;100957.56;10458625;28;19925;-64
2023/03/11 07:30:33;;;;;;;;;;;;;;;1.29;91.33;100966.50;10457856;28;19971;-63
2023/03/11 07:35:35;;;;;;;;;;;;;;;1.51;90.94;100976.44;10456589;28;19983;-63
2023/03/11 07:40:37;;;;;;;;;;;;;;;1.53;88.22;100977.28;10457729;28;19948;-63
2023/03/11 07:45:40;;;;;;;;;;;;;;;2.08;87.66;100977.16;10454025;28;19925;-63
2023/03/11 07:50:42;;;;;;;;;;;;;;;1.89;84.75;100980.09;10457646;28;19924;-63
2023/03/11 07:55:44;;;;;;;;;;;;;;;2.57;84.67;100987.38;10438447;28;20359;-63
2023/03/11 08:00:46;;;;;;;;;;;;;;;2.49;83.67;100988.38;10457044;28;19928;-63
2023/03/11 08:05:49;;;;;;;;;;;;;;;2.85;82.44;100993.66;10457667;28;19979;-63
2023/03/11 08:10:51;;;;;;;;;;;;;;;3.21;81.47;100999.75;10455312;28;19925;-63
2023/03/11 08:15:53;;;;;;;;;;;;;;;3.71;81.86;101005.38;10432465;28;19994;-64
2023/03/11 08:20:56;;;;;;;;;;;;;;;3.76;79.48;101009.63;10457507;28;19936;-63
2023/03/11 08:25:59;;;;;;;;;;;;;;;4.64;79.84;101006.31;10457196;28;19932;-63
2023/03/11 08:31:01;;;;;;;;;;;;;;;5.39;79.04;101003.13;10437332;28;20375;-64
2023/03/11 08:36:03;;;;;;;;;;;;;;;5.85;78.47;101008.56;10437393;28;19975;-64
2023/03/11 08:41:06;;;;;;;;;;;;;;;5.40;75.38;101001.41;10455423;28;19929;-63
2023/03/11 08:46:10;;;;;;;;;;;;;;;5.69;76.26;101000.44;10456278;28;20395;-64
2023/03/11 08:51:12;;;;;;;;;;;;;;;5.91;73.18;101016.13;10433337;28;19925;-63
2023/03/11 08:56:14;;;;;;;;;;;;;;;6.58;71.98;101016.41;10448072;28;20433;-64
2023/03/11 09:01:16;;;;;;;;;;;;;;;6.66;72.72;101019.59;10454526;28;19987;-63
2023/03/11 09:06:19;;;;;;;;;;;;;;;6.23;67.56;101037.59;10446595;28;19925;-63
2023/03/11 09:11:21;;;;;;;;;;;;;;;6.82;68.18;101032.84;10462318;28;20368;-63
2023/03/11 09:16:24;;;;;;;;;;;;;;;8.73;70.17;101043.19;10440264;28;20371;-64
2023/03/11 09:21:26;;;;;;;;;;;;;;;8.09;67.82;101050.31;10463106;28;20024;-64
2023/03/11 09:26:28;;;;;;;;;;;;;;;9.33;67.84;101057.81;10463530;28;19925;-64
2023/03/11 09:31:30;;;;;;;;;;;;;;;8.51;63.86;101062.44;10463459;28;19975;-64
2023/03/11 09:36:33;;;;;;;;;;;;;;;9.23;61.17;101057.41;10463427;28;19971;-64
2023/03/11 09:41:38;;;;;;;;;;;;;;;10.42;60.50;101065.47;10462423;28;19948;-64
2023/03/11 09:47:07;;;;;;;;;;;;;;;9.76;62.06;101058.34;10462844;28;19925;-64
2023/03/11 09:52:09;;;;;;;;;;;;;;;9.74;55.59;101070.66;10461998;28;20253;-65
2023/03/11 09:57:13;;;;;;;;;;;;;;;9.35;57.19;101069.06;10461784;28;20375;-65
2023/03/11 10:02:19;;;;;;;;;;;;;;;8.98;51.03;101063.81;10461362;28;19995;-65
2023/03/11 10:07:26;;;;;;;;;;;;;;;10.14;53.73;101063.41;10443999;28;19963;-65
2023/03/11 10:12:44;;;;;;;;;;;;;;;10.69;55.39;101065.78;10460949;28;20323;-65
2023/03/11 10:18:09;;;;;;;;;;;;;;;12.22;54.77;101068.53;10461642;28;19959;-66
2023/03/11 10:23:11;;;;;;;;;;;;;;;12.60;53.65;101067.97;10427449;28;19925;-66
2023/03/11 10:28:21;;;;;;;;;;;;;;;12.86;52.99;101064.66;10461183;28;19978;-66
2023/03/11 10:33:25;;;;;;;;;;;;;;;12.66;51.70;101071.16;10443421;28;19924;-66
2023/03/11 10:38:32;;;;;;;;;;;;;;;11.15;48.97;101070.28;10442748;28;19947;-66
2023/03/11 10:43:38;;;;;;;;;;;;;;;10.01;48.73;101071.88;10460004;28;19925;-66
2023/03/11 10:48:40;;;;;;;;;;;;;;;12.48;48.36;101083.66;10460344;28;19951;-66
2023/03/11 10:53:43;;;;;;;;;;;;;;;13.19;49.74;101073.03;10460169;28;19925;-66
2023/03/11 10:58:49;;;;;;;;;;;;;;;13.79;50.50;101072.75;10442129;28;19933;-67
2023/03/11 11:03:54;;;;;;;;;;;;;;;11.22;49.01;101081.28;10441482;28;20414;-66
2023/03/11 11:09:29;;;;;;;;;;;;;;;10.07;49.75;101075.09;10441674;28;19931;-66
2023/03/11 11:14:48;;;;;;;;;;;;;;;12.45;50.89;101069.75;10440959;28;19932;-66
2023/03/11 11:19:51;;;;;;;;;;;;;;;12.57;49.15;101077.81;10459140;28;19924;-66
2023/03/11 11:24:55;;;;;;;;;;;;;;;12.26;44.28;101067.41;10439994;28;19995;-66
2023/03/11 11:30:03;;;;;;;;;;;;;;;13.32;46.82;101069.66;10441223;28;19975;-66
2023/03/11 11:35:07;;;;;;;;;;;;;;;14.60;44.51;101067.22;10456115;28;19986;-66
2023/03/11 11:40:15;;;;;;;;;;;;;;;14.01;44.31;101072.16;10456052;28;20291;-66
2023/03/11 11:45:21;;;;;;;;;;;;;;;16.94;41.41;101075.38;10457613;28;20300;-66
2023/03/11 11:50:25;;;;;;;;;;;;;;;15.64;39.11;101073.84;10440373;28;19925;-67
2023/03/11 11:55:28;;;;;;;;;;;;;;;16.40;38.38;101058.44;10436454;28;20346;-67
2023/03/11 12:00:50;;;;;;;;;;;;;;;15.01;41.26;101066.09;10439813;28;19928;-67
2023/03/11 12:05:57;;;;;;;;;;;;;;;15.18;40.68;101074.56;10443272;28;19975;-67
2023/03/11 12:11:00;;;;;;;;;;;;;;;18.15;39.74;101069.84;10438639;28;19925;-67
2023/03/11 12:16:21;;;;;;;;;;;;;;;14.38;40.11;101073.13;10435850;28;19929;-66
2023/03/11 12:21:44;;;;;;;;;;;;;;;16.89;43.01;101067.81;10452349;28;19925;-66
2023/03/11 12:26:46;;;;;;;;;;;;;;;18.90;40.69;101064.34;10418898;28;19958;-66
2023/03/11 12:31:48;;;;;;;;;;;;;;;19.04;38.06;101065.75;10456086;28;19925;-66
2023/03/11 12:36:50;;;;;;;;;;;;;;;16.83;37.87;101052.41;10440874;28;20367;-66
2023/03/11 12:42:11;;;;;;;;;;;;;;;16.55;39.52;101060.84;10447888;28;19925;-66
2023/03/11 12:47:13;;;;;;;;;;;;;;;18.44;35.26;101055.94;10461698;28;19975;-66
2023/03/11 12:52:16;;;;;;;;;;;;;;;20.21;38.25;101045.31;10461044;28;20287;-67
2023/03/11 12:57:29;;;;;;;;;;;;;;;16.85;38.07;101039.94;10463947;28;19925;-66
2023/03/11 13:02:46;;;;;;;;;;;;;;;13.72;37.12;101038.13;10463641;28;19925;-66
2023/03/11 13:08:15;;;;;;;;;;;;;;;12.57;40.55;101046.31;10464261;28;19928;-65
2023/03/11 13:13:23;;;;;;;;;;;;;;;15.63;34.45;101024.66;10460880;28;20003;-65
2023/03/11 13:18:29;;;;;;;;;;;;;;;14.97;34.68;101029.50;10463340;28;20465;-65
2023/03/11 13:23:35;;;;;;;;;;;;;;;18.60;37.37;101026.25;10463808;28;19979;-65
2023/03/11 13:28:37;;;;;;;;;;;;;;;16.03;34.78;101039.31;10463491;28;19925;-65
2023/03/11 13:33:52;;;;;;;;;;;;;;;17.26;34.10;101033.09;10462903;28;20371;-65
2023/03/11 13:39:11;;;;;;;;;;;;;;;17.87;36.34;101029.00;10445660;28;19939;-65
2023/03/11 13:44:20;;;;;;;;;;;;;;;17.82;32.69;101029.34;10444924;28;19931;-65
2023/03/11 13:49:24;;;;;;;;;;;;;;;17.90;38.08;101036.66;10444410;28;19929;-65
2023/03/11 13:54:29;;;;;;;;;;;;;;;16.06;39.49;101050.47;10462454;28;19932;-65
2023/03/11 13:59:33;;;;;;;;;;;;;;;17.86;37.38;101042.31;10461111;28;19948;-65
2023/03/11 14:04:36;;;;;;;;;;;;;;;20.34;39.30;101038.81;10460448;28;20368;-65
2023/03/11 14:09:38;;;;;;;;;;;;;;;18.34;35.25;101042.63;10459561;28;20396;-65
2023/03/11 14:15:06;;;;;;;;;;;;;;;17.55;33.65;101045.72;10456799;28;20384;-65
2023/03/11 14:20:16;;;;;;;;;;;;;;;16.05;31.89;101055.88;10459001;28;19992;-65
2023/03/11 14:25:19;;;;;;;;;;;;;;;16.31;31.79;101056.50;10461332;28;19925;-64
2023/03/11 14:30:23;;;;;;;;;;;;;;;16.02;32.87;101053.44;10459362;28;20383;-64
2023/03/11 14:35:25;;;;;;;;;;;;;;;16.07;33.29;101061.88;10458308;28;19982;-61
2023/03/11 14:40:31;;;;;;;;;;;;;;;14.34;36.06;101062.91;10459400;28;19929;-61
2023/03/11 14:45:35;;;;;;;;;;;;;;;13.77;34.85;101070.22;10458510;28;19925;-62
2023/03/11 14:50:37;;;;;;;;;;;;;;;15.40;37.17;101066.78;10442839;28;19931;-61
2023/03/11 14:55:42;;;;;;;;;;;;;;;14.75;34.75;101069.75;10458137;28;19963;-61
2023/03/11 15:00:48;;;;;;;;;;;;;;;16.05;35.78;101064.63;10454639;28;19971;-61
2023/03/11 15:05:51;;;;;;;;;;;;;;;13.60;37.19;101076.63;10437395;28;19925;-61
2023/03/11 15:11:00;;;;;;;;;;;;;;;15.17;36.03;101073.72;10457276;28;19929;-61
2023/03/11 15:16:05;;;;;;;;;;;;;;;16.16;34.92;101066.47;10458242;28;19972;-61
2023/03/11 15:21:14;;;;;;;;;;;;;;;18.16;33.59;101062.75;10439860;28;20268;-62
2023/03/11 15:26:24;;;;;;;;;;;;;;;20.07;31.11;101061.72;10534959;27;19919;-62
2023/03/11 15:31:31;;;;;;;;;;;;;;;18.36;30.53;101059.22;10502810;22;19989;-63
2023/03/11 15:36:34;;;;;;;;;;;;;;;17.87;34.00;101067.84;10423621;28;19979;-63
2023/03/11 15:41:36;;;;;;;;;;;;;;;17.28;33.04;101062.06;10410250;28;19925;-63
2023/03/11 15:46:39;;;;;;;;;;;;;;;16.59;32.19;101071.03;10437259;28;19925;-63
2023/03/11 15:51:41;;;;;;;;;;;;;;;15.76;32.70;101065.03;10441437;28;19929;-63
2023/03/11 15:56:43;;;;;;;;;;;;;;;15.19;33.33;101063.91;10411726;28;19979;-63
2023/03/11 16:01:46;;;;;;;;;;;;;;;12.60;36.49;101078.47;10407784;28;19973;-63
2023/03/11 16:06:48;;;;;;;;;;;;;;;13.24;37.47;101070.13;10410387;28;19964;-63
2023/03/11 16:12:12;;;;;;;;;;;;;;;12.62;38.17;101070.50;10408699;28;20265;-63
2023/03/11 16:17:14;;;;;;;;;;;;;;;11.17;40.07;101065.81;10408944;28;20368;-62
2023/03/11 16:22:20;;;;;;;;;;;;;;;10.22;41.56;101077.78;10408405;28;19972;-62
2023/03/11 16:27:23;;;;;;;;;;;;;;;9.43;42.89;101075.63;10407580;28;19925;-62
2023/03/11 16:32:25;;;;;;;;;;;;;;;9.14;46.82;101071.75;10405977;28;19925;-62
2023/03/11 16:37:27;;;;;;;;;;;;;;;8.98;46.96;101069.03;10382669;28;21498;-62
2023/03/11 16:42:29;;;;;;;;;;;;;;;7.58;51.80;101077.63;10380179;28;20060;-62
2023/03/11 16:47:31;;;;;;;;;;;;;;;6.62;54.23;101080.44;10380676;28;19929;-62
2023/03/11 16:52:34;;;;;;;;;;;;;;;6.63;55.40;101085.59;10380561;28;19932;-62
2023/03/11 16:57:38;;;;;;;;;;;;;;;6.24;57.82;101083.50;10380952;28;19930;-62
2023/03/11 17:02:40;;;;;;;;;;;;;;;6.28;58.66;101092.88;10380313;28;19929;-62
2023/03/11 17:07:42;;;;;;;;;;;;;;;5.59;61.13;101095.16;10378226;28;19933;-62
2023/03/11 17:12:44;;;;;;;;;;;;;;;5.02;64.16;101097.72;10383891;28;20427;-62
2023/03/11 17:17:46;;;;;;;;;;;;;;;4.90;64.15;101095.50;10420455;28;19925;-62
2023/03/11 17:22:49;;;;;;;;;;;;;;;4.69;65.03;101101.28;10420316;28;19925;-62
2023/03/11 17:27:51;;;;;;;;;;;;;;;4.11;67.46;101101.97;10442679;28;20498;-62
2023/03/11 17:32:53;;;;;;;;;;;;;;;4.29;67.11;101113.63;10381933;28;19926;-62
2023/03/11 17:37:55;;;;;;;;;;;;;;;3.90;68.96;101112.00;10385425;28;19926;-61
2023/03/11 17:42:57;;;;;;;;;;;;;;;3.42;71.80;101096.72;10380463;28;19925;-61
2023/03/11 17:48:00;;;;;;;;;;;;;;;3.36;72.26;101102.03;10377853;28;19932;-61
2023/03/11 17:53:02;;;;;;;;;;;;;;;3.10;73.40;101107.78;10380504;28;20343;-61
2023/03/11 17:58:04;;;;;;;;;;;;;;;3.01;71.93;101116.59;10380237;28;19925;-61
2023/03/11 18:03:07;;;;;;;;;;;;;;;2.77;75.42;101123.09;10377275;28;19945;-61
2023/03/11 18:08:09;;;;;;;;;;;;;;;2.71;75.82;101113.75;10378575;28;19926;-61
2023/03/11 18:13:11;;;;;;;;;;;;;;;2.73;73.15;101119.72;10377512;28;20371;-61
2023/03/11 18:18:13;;;;;;;;;;;;;;;2.27;76.60;101125.78;10374828;28;20388;-61
2023/03/11 18:23:16;;;;;;;;;;;;;;;2.00;78.00;101127.94;10373979;28;19933;-61
2023/03/11 18:28:18;;;;;;;;;;;;;;;1.99;78.86;101122.81;10375077;28;19948;-61
2023/03/11 18:33:21;;;;;;;;;;;;;;;2.01;79.02;101128.78;10405556;28;19971;-61
2023/03/11 18:38:23;;;;;;;;;;;;;;;1.84;79.39;101139.41;10415195;28;19926;-63
2023/03/11 18:43:25;;;;;;;;;;;;;;;1.60;79.67;101145.78;10369514;28;19980;-63
2023/03/11 18:48:27;;;;;;;;;;;;;;;1.74;80.12;101143.00;10371495;28;19929;-61
2023/03/11 18:53:29;;;;;;;;;;;;;;;1.48;81.29;101145.09;10378085;28;19930;-61
2023/03/11 18:58:32;;;;;;;;;;;;;;;1.53;82.15;101144.16;10372834;28;19929;-61
2023/03/11 19:03:34;;;;;;;;;;;;;;;1.47;83.02;101145.09;10376322;28;19979;-61
2023/03/11 19:08:36;;;;;;;;;;;;;;;1.62;82.92;101146.63;10404892;28;19956;-61
2023/03/11 19:13:39;;;;;;;;;;;;;;;1.71;79.61;101143.88;10404001;28;19932;-61
2023/03/11 19:18:49;;;;;;;;;;;;;;;1.86;80.82;101143.66;10380945;28;19925;-61
2023/03/11 19:23:53;;;;;;;;;;;;;;;1.82;82.22;101134.25;10380300;28;19933;-61
2023/03/11 19:28:56;;;;;;;;;;;;;;;1.86;81.65;101147.97;10374455;28;20432;-61
2023/03/11 19:33:58;;;;;;;;;;;;;;;1.93;81.46;101139.25;10388714;28;19952;-61
2023/03/11 19:39:00;;;;;;;;;;;;;;;1.75;81.63;101139.53;10379224;28;19953;-61
2023/03/11 19:44:03;;;;;;;;;;;;;;;1.54;82.14;101143.28;10374321;28;20280;-61
2023/03/11 19:49:05;;;;;;;;;;;;;;;1.44;82.49;101145.16;10374806;28;19926;-61
2023/03/11 19:54:08;;;;;;;;;;;;;;;1.56;81.66;101139.81;10376267;28;19925;-63
2023/03/11 19:59:10;;;;;;;;;;;;;;;1.35;82.50;101138.38;10374884;28;20004;-61
2023/03/11 20:04:13;;;;;;;;;;;;;;;1.44;81.55;101140.00;10376035;28;19953;-61
2023/03/11 20:09:16;;;;;;;;;;;;;;;1.14;80.83;101141.25;10379264;28;20381;-61
2023/03/11 20:14:18;;;;;;;;;;;;;;;1.37;77.33;101136.63;10381595;28;19925;-62
2023/03/11 20:19:21;;;;;;;;;;;;;;;1.18;81.66;101141.19;10385071;28;19948;-61
2023/03/11 20:24:23;;;;;;;;;;;;;;;0.99;82.50;101153.44;10381521;28;20005;-61
2023/03/11 20:29:25;;;;;;;;;;;;;;;0.80;82.47;101149.41;10384299;28;19933;-61
2023/03/11 20:34:28;;;;;;;;;;;;;;;0.78;84.07;101146.00;10380314;28;19925;-61
2023/03/11 20:39:30;;;;;;;;;;;;;;;0.71;85.38;101151.19;10381943;28;19948;-61
2023/03/11 20:44:32;;;;;;;;;;;;;;;0.73;85.21;101149.44;10380116;28;20011;-61
2023/03/11 20:49:35;;;;;;;;;;;;;;;0.72;84.30;101139.16;10380098;28;19926;-61
2023/03/11 20:54:37;;;;;;;;;;;;;;;0.64;83.80;101140.97;10382247;28;19933;-61
2023/03/11 20:59:39;;;;;;;;;;;;;;;0.65;84.34;101137.53;10379717;28;19926;-61
2023/03/11 21:04:42;;;;;;;;;;;;;;;0.59;84.62;101146.19;10379498;28;19980;-61
2023/03/11 21:09:45;;;;;;;;;;;;;;;0.71;85.62;101138.31;10378634;28;19925;-61
2023/03/11 21:14:47;;;;;;;;;;;;;;;0.71;86.05;101142.63;10379259;28;19933;-61
2023/03/11 21:19:49;;;;;;;;;;;;;;;0.62;85.78;101138.41;10379257;28;19932;-61
2023/03/11 21:24:52;;;;;;;;;;;;;;;0.79;85.78;101130.50;10378609;28;19929;-61
2023/03/11 21:29:54;;;;;;;;;;;;;;;0.65;86.73;101133.22;10378591;28;19926;-61
2023/03/11 21:34:57;;;;;;;;;;;;;;;0.73;87.63;101136.56;10379884;28;19948;-61
2023/03/11 21:40:00;;;;;;;;;;;;;;;0.71;87.29;101138.31;10378727;28;19961;-61
2023/03/11 21:45:02;;;;;;;;;;;;;;;0.94;86.68;101132.03;10377994;28;20018;-61
2023/03/11 21:50:04;;;;;;;;;;;;;;;0.89;88.30;101126.94;10377596;28;19952;-61
2023/03/11 21:55:07;;;;;;;;;;;;;;;0.93;88.98;101127.75;10377411;28;20312;-61
2023/03/11 22:00:10;;;;;;;;;;;;;;;1.00;86.10;101123.38;10376389;28;19932;-61
2023/03/11 22:05:13;;;;;;;;;;;;;;;0.87;86.67;101123.50;10375996;28;20004;-61
2023/03/11 22:10:16;;;;;;;;;;;;;;;0.89;87.94;101124.38;10377506;28;19925;-61
2023/03/11 22:15:18;;;;;;;;;;;;;;;0.83;86.15;101121.84;10376285;28;19926;-61
2023/03/11 22:20:20;;;;;;;;;;;;;;;0.89;85.41;101121.78;10376471;28;19925;-61
2023/03/11 22:25:22;;;;;;;;;;;;;;;1.32;85.13;101110.06;10376659;28;19930;-61
2023/03/11 22:30:25;;;;;;;;;;;;;;;1.35;83.40;101106.59;10376507;28;19980;-61
2023/03/11 22:35:27;;;;;;;;;;;;;;;1.35;82.63;101104.00;10374382;28;19925;-61
2023/03/11 22:40:29;;;;;;;;;;;;;;;1.57;84.23;101107.13;10375499;28;19925;-61
2023/03/11 22:45:31;;;;;;;;;;;;;;;1.20;84.25;101105.06;10375124;28;20376;-61
2023/03/11 22:50:33;;;;;;;;;;;;;;;1.20;84.15;101108.50;10375606;28;19925;-61
2023/03/11 22:55:39;;;;;;;;;;;;;;;1.40;83.30;101105.63;10374930;28;19926;-61
2023/03/11 23:00:43;;;;;;;;;;;;;;;1.52;80.39;101107.19;10375233;28;20332;-61
2023/03/11 23:05:45;;;;;;;;;;;;;;;1.47;79.69;101101.25;10375084;28;20362;-61
2023/03/11 23:10:47;;;;;;;;;;;;;;;1.38;80.65;101099.66;10374955;28;19925;-61
2023/03/11 23:15:50;;;;;;;;;;;;;;;1.42;81.35;101090.97;10373731;28;20313;-61
2023/03/11 23:20:52;;;;;;;;;;;;;;;1.40;82.77;101094.47;10375312;28;20030;-61
2023/03/11 23:25:54;;;;;;;;;;;;;;;1.47;81.32;101098.66;10405893;28;19926;-61
2023/03/11 23:30:56;;;;;;;;;;;;;;;1.55;81.33;101095.97;10374287;28;19996;-61
2023/03/11 23:36:02;;;;;;;;;;;;;;;1.49;82.03;101095.16;10374111;28;19926;-61
2023/03/11 23:41:08;;;;;;;;;;;;;;;1.81;80.50;101096.38;10374735;28;19926;-61
2023/03/11 23:46:11;;;;;;;;;;;;;;;1.58;81.79;101095.91;10378996;28;19925;-61
2023/03/11 23:51:13;;;;;;;;;;;;;;;1.69;80.22;101103.50;10382298;28;20399;-61
2023/03/11 23:56:15;;;;;;;;;;;;;;;1.59;80.68;101080.41;10382452;28;19925;-61
